JZR311K OKKK-LTCG
Flight info
| Callsign | JZR311K |
|---|---|
| Flight time | N/A |
| Altitude | 38000 |
| Route | RALKA G795 TASMI L602 GADSI M860 NINVA UM860 RENGI DCT SONAD UT166 PIXAP |
| Aircraft | A20N/M-SDE2E3FGHIRWXY/LB1 |
Departure
| Time | 2026-05-08 10:21 |
|---|---|
| Airport | Kuwait International Airport (OKKK) |
Arrival
| Time | N/A |
|---|---|
| Airport | Trabzon International Airport (LTCG) |
| Time | Latitude | Longitude | Altitude | Speed | Heading |
|---|---|---|---|---|---|
| 2026-05-08 09:51 | 29.23657 | 47.96864 | 149 ft | 0 kts | 152° |
| 2026-05-08 10:09 | 29.23665 | 47.96858 | 149 ft | 2 kts | 152° |
| 2026-05-08 10:09 | 29.23678 | 47.96850 | 149 ft | 2 kts | 152° |
| 2026-05-08 10:09 | 29.23691 | 47.96842 | 149 ft | 2 kts | 152° |
| 2026-05-08 10:09 | 29.23705 | 47.96835 | 149 ft | 2 kts | 181° |
| 2026-05-08 10:10 | 29.23720 | 47.96840 | 149 ft | 2 kts | 219° |
| 2026-05-08 10:10 | 29.23726 | 47.96848 | 150 ft | 0 kts | 243° |
| 2026-05-08 10:10 | 29.23729 | 47.96856 | 150 ft | 0 kts | 246° |
| 2026-05-08 10:12 | 29.23720 | 47.96833 | 149 ft | 6 kts | 246° |
| 2026-05-08 10:12 | 29.23694 | 47.96768 | 148 ft | 11 kts | 246° |
| 2026-05-08 10:12 | 29.23674 | 47.96718 | 147 ft | 7 kts | 245° |
| 2026-05-08 10:13 | 29.23657 | 47.96679 | 145 ft | 0 kts | 246° |
| 2026-05-08 10:13 | 29.23649 | 47.96661 | 145 ft | 4 kts | 246° |
| 2026-05-08 10:13 | 29.23616 | 47.96635 | 145 ft | 8 kts | 175° |
| 2026-05-08 10:13 | 29.23554 | 47.96663 | 145 ft | 10 kts | 155° |
| 2026-05-08 10:14 | 29.23483 | 47.96701 | 145 ft | 12 kts | 154° |
| 2026-05-08 10:14 | 29.23404 | 47.96743 | 147 ft | 12 kts | 157° |
| 2026-05-08 10:14 | 29.23322 | 47.96785 | 148 ft | 13 kts | 154° |
| 2026-05-08 10:14 | 29.23232 | 47.96834 | 150 ft | 14 kts | 155° |
| 2026-05-08 10:15 | 29.23136 | 47.96887 | 151 ft | 15 kts | 154° |
| 2026-05-08 10:15 | 29.23037 | 47.96939 | 153 ft | 15 kts | 155° |
| 2026-05-08 10:15 | 29.22938 | 47.96991 | 156 ft | 15 kts | 154° |
| 2026-05-08 10:15 | 29.22840 | 47.97047 | 158 ft | 15 kts | 155° |
| 2026-05-08 10:16 | 29.22734 | 47.97099 | 159 ft | 17 kts | 156° |
| 2026-05-08 10:16 | 29.22624 | 47.97156 | 160 ft | 17 kts | 154° |
| 2026-05-08 10:16 | 29.22512 | 47.97217 | 162 ft | 17 kts | 155° |
| 2026-05-08 10:16 | 29.22403 | 47.97275 | 164 ft | 17 kts | 155° |
| 2026-05-08 10:17 | 29.22293 | 47.97333 | 165 ft | 17 kts | 155° |
| 2026-05-08 10:17 | 29.22176 | 47.97397 | 166 ft | 18 kts | 155° |
| 2026-05-08 10:17 | 29.22053 | 47.97462 | 168 ft | 20 kts | 155° |
| 2026-05-08 10:17 | 29.21920 | 47.97533 | 169 ft | 21 kts | 155° |
| 2026-05-08 10:18 | 29.21782 | 47.97607 | 172 ft | 22 kts | 154° |
| 2026-05-08 10:18 | 29.21639 | 47.97683 | 173 ft | 23 kts | 156° |
| 2026-05-08 10:18 | 29.21492 | 47.97761 | 175 ft | 22 kts | 155° |
| 2026-05-08 10:18 | 29.21352 | 47.97835 | 175 ft | 21 kts | 155° |
| 2026-05-08 10:19 | 29.21260 | 47.97837 | 175 ft | 12 kts | 231° |
| 2026-05-08 10:19 | 29.21248 | 47.97740 | 175 ft | 13 kts | 296° |
| 2026-05-08 10:19 | 29.21280 | 47.97642 | 174 ft | 10 kts | 252° |
| 2026-05-08 10:20 | 29.21455 | 47.97533 | 173 ft | 57 kts | 335° |
| 2026-05-08 10:20 | 29.22024 | 47.97229 | 166 ft | 118 kts | 336° |
| 2026-05-08 10:20 | 29.22927 | 47.96751 | 164 ft | 165 kts | 336° |
| 2026-05-08 10:20 | 29.24007 | 47.96191 | 577 ft | 171 kts | 339° |
| 2026-05-08 10:21 | 29.25090 | 47.95629 | 1203 ft | 170 kts | 338° |
| 2026-05-08 10:21 | 29.26155 | 47.95068 | 1830 ft | 168 kts | 337° |
| 2026-05-08 10:21 | 29.27234 | 47.94497 | 2206 ft | 177 kts | 338° |
| 2026-05-08 10:21 | 29.28481 | 47.94204 | 2443 ft | 189 kts | 8° |
| 2026-05-08 10:22 | 29.29770 | 47.94669 | 2703 ft | 203 kts | 21° |
| 2026-05-08 10:22 | 29.31139 | 47.95365 | 2888 ft | 224 kts | 23° |
| 2026-05-08 10:22 | 29.32614 | 47.96149 | 3190 ft | 241 kts | 24° |
| 2026-05-08 10:22 | 29.34181 | 47.96989 | 3499 ft | 258 kts | 23° |
| 2026-05-08 10:23 | 29.35782 | 47.97854 | 3987 ft | 266 kts | 24° |
| 2026-05-08 10:23 | 29.37503 | 47.98795 | 4617 ft | 272 kts | 24° |
| 2026-05-08 10:23 | 29.39228 | 47.99745 | 5236 ft | 278 kts | 23° |
| 2026-05-08 10:23 | 29.40980 | 48.00723 | 5855 ft | 284 kts | 24° |
| 2026-05-08 10:24 | 29.42779 | 48.01730 | 6507 ft | 289 kts | 24° |
| 2026-05-08 10:24 | 29.44607 | 48.02760 | 7219 ft | 293 kts | 24° |
| 2026-05-08 10:24 | 29.46447 | 48.03800 | 7944 ft | 297 kts | 24° |
| 2026-05-08 10:24 | 29.48308 | 48.04858 | 8641 ft | 301 kts | 24° |
| 2026-05-08 10:25 | 29.50206 | 48.05943 | 9365 ft | 305 kts | 24° |
| 2026-05-08 10:25 | 29.52116 | 48.07042 | 10071 ft | 308 kts | 24° |
| 2026-05-08 10:25 | 29.54070 | 48.08156 | 10617 ft | 319 kts | 24° |
| 2026-05-08 10:25 | 29.56126 | 48.09313 | 10981 ft | 335 kts | 24° |
| 2026-05-08 10:26 | 29.58271 | 48.10429 | 11586 ft | 339 kts | 15° |
| 2026-05-08 10:26 | 29.60635 | 48.10669 | 12291 ft | 335 kts | 347° |
| 2026-05-08 10:26 | 29.62812 | 48.09837 | 13043 ft | 333 kts | 334° |
| 2026-05-08 10:26 | 29.64933 | 48.08725 | 13699 ft | 336 kts | 333° |
| 2026-05-08 10:27 | 29.67121 | 48.07591 | 14341 ft | 341 kts | 334° |
| 2026-05-08 10:27 | 29.69315 | 48.06515 | 14764 ft | 343 kts | 335° |
| 2026-05-08 10:27 | 29.71515 | 48.05484 | 14905 ft | 344 kts | 335° |
| 2026-05-08 10:27 | 29.73765 | 48.04458 | 14911 ft | 343 kts | 336° |
| 2026-05-08 10:28 | 29.76007 | 48.03452 | 14931 ft | 345 kts | 336° |
| 2026-05-08 10:28 | 29.78304 | 48.02432 | 15357 ft | 351 kts | 336° |
| 2026-05-08 10:28 | 29.80591 | 48.01421 | 16133 ft | 350 kts | 336° |
| 2026-05-08 10:28 | 29.82887 | 48.00407 | 16826 ft | 352 kts | 336° |
| 2026-05-08 10:29 | 29.85186 | 47.99392 | 17464 ft | 355 kts | 336° |
| 2026-05-08 10:29 | 29.87505 | 47.98368 | 18062 ft | 358 kts | 335° |
| 2026-05-08 10:29 | 29.89883 | 47.97319 | 18619 ft | 363 kts | 335° |
| 2026-05-08 10:29 | 29.92253 | 47.96271 | 19155 ft | 367 kts | 335° |
| 2026-05-08 10:30 | 29.94688 | 47.95192 | 19678 ft | 372 kts | 335° |
| 2026-05-08 10:30 | 29.97148 | 47.94103 | 20203 ft | 376 kts | 335° |
| 2026-05-08 10:30 | 29.99603 | 47.93003 | 20710 ft | 379 kts | 332° |
| 2026-05-08 10:30 | 30.01950 | 47.91518 | 21206 ft | 377 kts | 320° |
| 2026-05-08 10:31 | 30.03975 | 47.89564 | 21700 ft | 375 kts | 309° |
| 2026-05-08 10:31 | 30.05748 | 47.87297 | 22217 ft | 376 kts | 305° |
| 2026-05-08 10:31 | 30.07475 | 47.84971 | 22712 ft | 379 kts | 304° |
| 2026-05-08 10:31 | 30.09210 | 47.82624 | 23200 ft | 383 kts | 304° |
| 2026-05-08 10:32 | 30.10980 | 47.80237 | 23690 ft | 386 kts | 304° |
| 2026-05-08 10:32 | 30.12743 | 47.77867 | 24129 ft | 390 kts | 304° |
| 2026-05-08 10:32 | 30.14540 | 47.75459 | 24559 ft | 393 kts | 304° |
| 2026-05-08 10:32 | 30.16334 | 47.73056 | 24994 ft | 396 kts | 303° |
| 2026-05-08 10:33 | 30.18154 | 47.70621 | 25417 ft | 399 kts | 303° |
| 2026-05-08 10:33 | 30.19989 | 47.68164 | 25813 ft | 401 kts | 303° |
| 2026-05-08 10:33 | 30.21849 | 47.65672 | 26225 ft | 404 kts | 303° |
| 2026-05-08 10:33 | 30.23703 | 47.63188 | 26599 ft | 407 kts | 303° |
| 2026-05-08 10:34 | 30.25556 | 47.60703 | 26961 ft | 410 kts | 302° |
| 2026-05-08 10:34 | 30.27465 | 47.58142 | 27319 ft | 412 kts | 302° |
| 2026-05-08 10:34 | 30.29355 | 47.55601 | 27643 ft | 416 kts | 302° |
| 2026-05-08 10:34 | 30.31277 | 47.53022 | 28001 ft | 418 kts | 302° |
| 2026-05-08 10:35 | 30.33190 | 47.50451 | 28329 ft | 421 kts | 302° |
| 2026-05-08 10:35 | 30.35128 | 47.47843 | 28620 ft | 424 kts | 302° |
| 2026-05-08 10:35 | 30.37064 | 47.45236 | 28938 ft | 426 kts | 302° |
| 2026-05-08 10:35 | 30.39024 | 47.42595 | 29232 ft | 429 kts | 302° |
| 2026-05-08 10:36 | 30.41000 | 47.39927 | 29491 ft | 433 kts | 302° |
| 2026-05-08 10:36 | 30.42986 | 47.37252 | 29835 ft | 433 kts | 302° |
| 2026-05-08 10:36 | 30.44969 | 47.34580 | 30193 ft | 434 kts | 300° |
| 2026-05-08 10:36 | 30.46961 | 47.31894 | 30536 ft | 434 kts | 300° |
| 2026-05-08 10:37 | 30.48938 | 47.29218 | 30809 ft | 437 kts | 300° |
| 2026-05-08 10:37 | 30.50943 | 47.26505 | 31180 ft | 436 kts | 300° |
| 2026-05-08 10:37 | 30.52934 | 47.23811 | 31546 ft | 436 kts | 300° |
| 2026-05-08 10:37 | 30.54964 | 47.21166 | 31884 ft | 439 kts | 302° |
| 2026-05-08 10:38 | 30.57160 | 47.18598 | 32247 ft | 443 kts | 305° |
| 2026-05-08 10:38 | 30.59462 | 47.16196 | 32626 ft | 446 kts | 308° |
| 2026-05-08 10:38 | 30.61897 | 47.13877 | 32948 ft | 447 kts | 309° |
| 2026-05-08 10:38 | 30.64337 | 47.11602 | 33232 ft | 448 kts | 309° |
| 2026-05-08 10:39 | 30.66781 | 47.09332 | 33600 ft | 446 kts | 309° |
| 2026-05-08 10:39 | 30.69234 | 47.07052 | 33928 ft | 444 kts | 309° |
| 2026-05-08 10:39 | 30.71671 | 47.04779 | 34223 ft | 444 kts | 309° |
| 2026-05-08 10:39 | 30.74078 | 47.02528 | 34463 ft | 444 kts | 308° |
| 2026-05-08 10:40 | 30.76514 | 47.00248 | 34766 ft | 443 kts | 308° |
| 2026-05-08 10:40 | 30.78949 | 46.97968 | 35018 ft | 442 kts | 308° |
| 2026-05-08 10:40 | 30.81382 | 46.95685 | 35251 ft | 442 kts | 308° |
| 2026-05-08 10:40 | 30.83792 | 46.93426 | 35504 ft | 441 kts | 308° |
| 2026-05-08 10:41 | 30.86178 | 46.91186 | 35731 ft | 440 kts | 308° |
| 2026-05-08 10:41 | 30.88607 | 46.88906 | 35984 ft | 439 kts | 308° |
| 2026-05-08 10:41 | 30.90996 | 46.86662 | 36192 ft | 439 kts | 307° |
| 2026-05-08 10:41 | 30.93400 | 46.84399 | 36385 ft | 439 kts | 307° |
| 2026-05-08 10:42 | 30.95786 | 46.82150 | 36502 ft | 440 kts | 307° |
| 2026-05-08 10:42 | 30.98210 | 46.79864 | 36710 ft | 439 kts | 307° |
| 2026-05-08 10:42 | 31.00581 | 46.77633 | 36969 ft | 437 kts | 307° |
| 2026-05-08 10:42 | 31.02987 | 46.75366 | 37127 ft | 437 kts | 307° |
| 2026-05-08 10:43 | 31.05386 | 46.73101 | 37255 ft | 438 kts | 307° |
| 2026-05-08 10:43 | 31.10160 | 46.68583 | 37510 ft | 438 kts | 307° |
| 2026-05-08 10:43 | 31.12519 | 46.66353 | 37613 ft | 438 kts | 307° |
| 2026-05-08 10:44 | 31.14924 | 46.64079 | 37720 ft | 438 kts | 307° |
| 2026-05-08 10:44 | 31.19723 | 46.59528 | 37801 ft | 440 kts | 307° |
| 2026-05-08 10:44 | 31.22116 | 46.57261 | 37929 ft | 439 kts | 307° |
| 2026-05-08 10:45 | 31.24496 | 46.55002 | 37929 ft | 439 kts | 307° |
| 2026-05-08 10:45 | 31.29316 | 46.50422 | 37928 ft | 442 kts | 307° |
| 2026-05-08 10:46 | 31.34158 | 46.45817 | 37928 ft | 441 kts | 307° |
| 2026-05-08 10:46 | 31.38933 | 46.41274 | 37936 ft | 440 kts | 307° |
| 2026-05-08 10:47 | 31.43741 | 46.36685 | 37938 ft | 439 kts | 307° |
| 2026-05-08 10:47 | 31.48490 | 46.32149 | 37941 ft | 440 kts | 307° |
| 2026-05-08 10:48 | 31.53273 | 46.27577 | 37942 ft | 439 kts | 307° |
| 2026-05-08 10:48 | 31.58067 | 46.22986 | 37943 ft | 437 kts | 307° |
| 2026-05-08 10:49 | 31.62806 | 46.18438 | 37945 ft | 437 kts | 307° |
| 2026-05-08 10:49 | 31.67577 | 46.13854 | 37949 ft | 437 kts | 307° |
| 2026-05-08 10:50 | 31.72324 | 46.09280 | 37945 ft | 438 kts | 307° |
| 2026-05-08 10:50 | 31.77088 | 46.04673 | 37932 ft | 435 kts | 307° |
| 2026-05-08 10:51 | 31.81730 | 46.00074 | 37953 ft | 435 kts | 306° |
| 2026-05-08 10:51 | 31.86401 | 45.95432 | 37952 ft | 436 kts | 306° |
| 2026-05-08 10:52 | 31.91089 | 45.90775 | 37950 ft | 435 kts | 306° |
| 2026-05-08 10:52 | 31.95734 | 45.86151 | 37946 ft | 436 kts | 307° |
| 2026-05-08 10:53 | 32.00444 | 45.81457 | 37946 ft | 437 kts | 307° |
| 2026-05-08 10:53 | 32.05141 | 45.76771 | 37945 ft | 438 kts | 307° |
| 2026-05-08 10:54 | 32.09822 | 45.72098 | 37947 ft | 438 kts | 307° |
| 2026-05-08 10:54 | 32.14502 | 45.67418 | 37940 ft | 439 kts | 307° |
| 2026-05-08 10:55 | 32.19174 | 45.62742 | 37936 ft | 436 kts | 307° |
| 2026-05-08 10:55 | 32.23832 | 45.58068 | 37946 ft | 435 kts | 307° |
| 2026-05-08 10:56 | 32.28513 | 45.53367 | 37952 ft | 435 kts | 307° |
| 2026-05-08 10:56 | 32.33131 | 45.48721 | 37962 ft | 436 kts | 307° |
| 2026-05-08 10:57 | 32.37814 | 45.44000 | 37965 ft | 436 kts | 308° |
| 2026-05-08 10:57 | 32.44792 | 45.36958 | 37956 ft | 437 kts | 308° |
| 2026-05-08 10:58 | 32.49426 | 45.32271 | 37954 ft | 435 kts | 307° |
| 2026-05-08 10:58 | 32.54126 | 45.27558 | 37957 ft | 441 kts | 309° |
| 2026-05-08 10:59 | 32.59181 | 45.23254 | 37962 ft | 447 kts | 314° |
| 2026-05-08 10:59 | 32.64398 | 45.19134 | 37965 ft | 449 kts | 315° |
| 2026-05-08 11:00 | 32.69646 | 45.14990 | 37966 ft | 446 kts | 315° |
| 2026-05-08 11:00 | 32.74922 | 45.10798 | 37967 ft | 449 kts | 315° |
| 2026-05-08 11:01 | 32.80173 | 45.06620 | 37970 ft | 449 kts | 315° |
| 2026-05-08 11:01 | 32.85392 | 45.02463 | 37968 ft | 447 kts | 315° |